sensor_id;sensor_type;location;lat;lon;timestamp;temperature;humidity
49224;DHT22;35050;51.316;5.994;2022-07-29T00:00:28;21.10;86.50
49224;DHT22;35050;51.316;5.994;2022-07-29T00:02:54;21.20;86.10
49224;DHT22;35050;51.316;5.994;2022-07-29T00:05:20;21.10;86.70
49224;DHT22;35050;51.316;5.994;2022-07-29T00:07:45;21.10;86.20
49224;DHT22;35050;51.316;5.994;2022-07-29T00:10:11;21.00;86.00
49224;DHT22;35050;51.316;5.994;2022-07-29T00:12:37;21.10;86.20
49224;DHT22;35050;51.316;5.994;2022-07-29T00:15:03;21.10;87.10
49224;DHT22;35050;51.316;5.994;2022-07-29T00:17:29;21.20;86.60
49224;DHT22;35050;51.316;5.994;2022-07-29T00:19:55;21.30;86.80
49224;DHT22;35050;51.316;5.994;2022-07-29T00:22:20;21.10;87.10
49224;DHT22;35050;51.316;5.994;2022-07-29T00:24:49;21.20;87.20
49224;DHT22;35050;51.316;5.994;2022-07-29T00:27:16;21.30;87.30
49224;DHT22;35050;51.316;5.994;2022-07-29T00:29:42;21.20;87.30
49224;DHT22;35050;51.316;5.994;2022-07-29T00:32:08;21.20;87.20
49224;DHT22;35050;51.316;5.994;2022-07-29T00:34:33;21.10;87.20
49224;DHT22;35050;51.316;5.994;2022-07-29T00:37:18;21.00;88.50
49224;DHT22;35050;51.316;5.994;2022-07-29T00:39:43;20.70;91.90
49224;DHT22;35050;51.316;5.994;2022-07-29T00:42:09;20.40;92.20
49224;DHT22;35050;51.316;5.994;2022-07-29T00:44:38;20.50;93.10
49224;DHT22;35050;51.316;5.994;2022-07-29T00:47:04;20.50;92.40
49224;DHT22;35050;51.316;5.994;2022-07-29T00:49:30;20.40;92.80
49224;DHT22;35050;51.316;5.994;2022-07-29T00:51:57;20.60;92.70
49224;DHT22;35050;51.316;5.994;2022-07-29T00:54:23;20.50;92.40
49224;DHT22;35050;51.316;5.994;2022-07-29T00:56:49;20.50;92.30
49224;DHT22;35050;51.316;5.994;2022-07-29T00:59:15;20.50;91.90
49224;DHT22;35050;51.316;5.994;2022-07-29T01:01:40;20.50;91.70
49224;DHT22;35050;51.316;5.994;2022-07-29T01:04:06;20.20;92.10
49224;DHT22;35050;51.316;5.994;2022-07-29T01:06:32;20.20;92.50
49224;DHT22;35050;51.316;5.994;2022-07-29T01:08:59;20.10;92.20
49224;DHT22;35050;51.316;5.994;2022-07-29T01:11:25;19.90;92.50
49224;DHT22;35050;51.316;5.994;2022-07-29T01:13:52;19.80;92.40
49224;DHT22;35050;51.316;5.994;2022-07-29T01:16:24;19.70;92.60
49224;DHT22;35050;51.316;5.994;2022-07-29T01:18:56;19.50;93.30
49224;DHT22;35050;51.316;5.994;2022-07-29T01:21:58;19.50;96.20
49224;DHT22;35050;51.316;5.994;2022-07-29T01:24:30;19.30;98.30
49224;DHT22;35050;51.316;5.994;2022-07-29T01:27:09;19.30;99.90
49224;DHT22;35050;51.316;5.994;2022-07-29T01:29:45;19.10;99.90
49224;DHT22;35050;51.316;5.994;2022-07-29T01:32:19;18.90;99.90
49224;DHT22;35050;51.316;5.994;2022-07-29T01:34:55;18.40;99.90
49224;DHT22;35050;51.316;5.994;2022-07-29T01:37:31;18.00;99.90
49224;DHT22;35050;51.316;5.994;2022-07-29T01:39:59;18.10;99.90
49224;DHT22;35050;51.316;5.994;2022-07-29T01:48:00;17.60;99.90
49224;DHT22;35050;51.316;5.994;2022-07-29T01:50:35;17.50;99.90
49224;DHT22;35050;51.316;5.994;2022-07-29T01:53:05;17.60;99.90
49224;DHT22;35050;51.316;5.994;2022-07-29T01:55:35;17.80;99.90
49224;DHT22;35050;51.316;5.994;2022-07-29T01:58:04;17.90;99.90
49224;DHT22;35050;51.316;5.994;2022-07-29T02:00:32;18.10;99.90
49224;DHT22;35050;51.316;5.994;2022-07-29T02:03:00;18.00;99.90
49224;DHT22;35050;51.316;5.994;2022-07-29T02:05:29;17.90;99.90
49224;DHT22;35050;51.316;5.994;2022-07-29T02:07:58;18.00;99.90
49224;DHT22;35050;51.316;5.994;2022-07-29T02:10:26;17.90;99.90
49224;DHT22;35050;51.316;5.994;2022-07-29T02:12:54;17.70;99.90
49224;DHT22;35050;51.316;5.994;2022-07-29T02:15:23;17.80;99.90
49224;DHT22;35050;51.316;5.994;2022-07-29T02:17:53;17.80;99.90
49224;DHT22;35050;51.316;5.994;2022-07-29T02:20:22;17.70;99.90
49224;DHT22;35050;51.316;5.994;2022-07-29T02:22:49;17.80;99.90
49224;DHT22;35050;51.316;5.994;2022-07-29T02:25:18;17.70;99.90
49224;DHT22;35050;51.316;5.994;2022-07-29T02:27:44;17.70;99.90
49224;DHT22;35050;51.316;5.994;2022-07-29T02:30:12;17.70;99.90
49224;DHT22;35050;51.316;5.994;2022-07-29T02:32:39;17.60;99.90
49224;DHT22;35050;51.316;5.994;2022-07-29T02:35:08;17.80;99.90
49224;DHT22;35050;51.316;5.994;2022-07-29T02:37:36;17.90;99.90
49224;DHT22;35050;51.316;5.994;2022-07-29T02:40:02;17.90;99.90
49224;DHT22;35050;51.316;5.994;2022-07-29T02:42:29;17.90;99.90
49224;DHT22;35050;51.316;5.994;2022-07-29T02:44:56;18.00;99.90
49224;DHT22;35050;51.316;5.994;2022-07-29T02:47:30;17.80;99.90
49224;DHT22;35050;51.316;5.994;2022-07-29T02:50:06;17.70;99.90
49224;DHT22;35050;51.316;5.994;2022-07-29T02:52:53;17.80;99.90
49224;DHT22;35050;51.316;5.994;2022-07-29T02:55:23;17.80;99.90
49224;DHT22;35050;51.316;5.994;2022-07-29T02:57:59;17.90;99.90
49224;DHT22;35050;51.316;5.994;2022-07-29T03:00:31;17.90;99.90
49224;DHT22;35050;51.316;5.994;2022-07-29T03:03:00;17.90;99.90
49224;DHT22;35050;51.316;5.994;2022-07-29T03:05:28;17.80;99.90
49224;DHT22;35050;51.316;5.994;2022-07-29T03:08:05;17.70;99.90
49224;DHT22;35050;51.316;5.994;2022-07-29T03:10:33;18.00;99.90
49224;DHT22;35050;51.316;5.994;2022-07-29T03:13:00;18.00;99.90
49224;DHT22;35050;51.316;5.994;2022-07-29T03:15:26;17.70;99.90
49224;DHT22;35050;51.316;5.994;2022-07-29T03:17:53;17.90;99.90
49224;DHT22;35050;51.316;5.994;2022-07-29T03:20:19;17.80;99.90
49224;DHT22;35050;51.316;5.994;2022-07-29T03:22:45;17.80;99.90
49224;DHT22;35050;51.316;5.994;2022-07-29T03:25:15;17.90;99.90
49224;DHT22;35050;51.316;5.994;2022-07-29T03:27:41;17.90;99.90
49224;DHT22;35050;51.316;5.994;2022-07-29T03:30:08;17.80;99.90
49224;DHT22;35050;51.316;5.994;2022-07-29T03:32:34;17.80;99.90
49224;DHT22;35050;51.316;5.994;2022-07-29T03:35:00;17.80;99.90
49224;DHT22;35050;51.316;5.994;2022-07-29T03:37:26;17.70;99.90
49224;DHT22;35050;51.316;5.994;2022-07-29T03:39:52;17.70;99.90
49224;DHT22;35050;51.316;5.994;2022-07-29T03:42:20;17.70;99.90
49224;DHT22;35050;51.316;5.994;2022-07-29T03:44:48;17.50;99.90
49224;DHT22;35050;51.316;5.994;2022-07-29T03:47:18;17.70;99.90
49224;DHT22;35050;51.316;5.994;2022-07-29T03:49:46;17.40;99.90
49224;DHT22;35050;51.316;5.994;2022-07-29T03:52:13;17.70;99.90
49224;DHT22;35050;51.316;5.994;2022-07-29T03:54:39;17.80;99.90
49224;DHT22;35050;51.316;5.994;2022-07-29T03:57:06;17.70;99.90
49224;DHT22;35050;51.316;5.994;2022-07-29T03:59:33;17.80;99.90
49224;DHT22;35050;51.316;5.994;2022-07-29T04:02:05;17.70;99.90
49224;DHT22;35050;51.316;5.994;2022-07-29T04:04:36;17.70;99.90
49224;DHT22;35050;51.316;5.994;2022-07-29T04:07:03;17.80;99.90
49224;DHT22;35050;51.316;5.994;2022-07-29T04:09:29;17.70;99.90
49224;DHT22;35050;51.316;5.994;2022-07-29T04:11:55;17.60;99.90
49224;DHT22;35050;51.316;5.994;2022-07-29T04:14:20;17.70;99.90
49224;DHT22;35050;51.316;5.994;2022-07-29T04:16:46;17.80;99.90
49224;DHT22;35050;51.316;5.994;2022-07-29T04:19:12;17.60;99.90
49224;DHT22;35050;51.316;5.994;2022-07-29T04:21:41;17.60;99.90
49224;DHT22;35050;51.316;5.994;2022-07-29T04:24:07;17.60;99.90
49224;DHT22;35050;51.316;5.994;2022-07-29T04:26:34;17.70;99.90
49224;DHT22;35050;51.316;5.994;2022-07-29T04:29:00;17.60;99.90
49224;DHT22;35050;51.316;5.994;2022-07-29T04:31:26;17.60;99.90
49224;DHT22;35050;51.316;5.994;2022-07-29T04:33:52;17.60;99.90
49224;DHT22;35050;51.316;5.994;2022-07-29T04:36:17;17.80;99.90
49224;DHT22;35050;51.316;5.994;2022-07-29T04:38:43;17.60;99.90
49224;DHT22;35050;51.316;5.994;2022-07-29T04:41:08;17.70;99.90
49224;DHT22;35050;51.316;5.994;2022-07-29T04:43:37;17.50;99.90
49224;DHT22;35050;51.316;5.994;2022-07-29T04:46:05;17.50;99.90
49224;DHT22;35050;51.316;5.994;2022-07-29T04:48:31;17.40;99.90
49224;DHT22;35050;51.316;5.994;2022-07-29T04:50:57;17.50;99.90
49224;DHT22;35050;51.316;5.994;2022-07-29T04:53:23;17.50;99.90
49224;DHT22;35050;51.316;5.994;2022-07-29T04:55:48;17.30;99.90
49224;DHT22;35050;51.316;5.994;2022-07-29T04:58:14;17.30;99.90
49224;DHT22;35050;51.316;5.994;2022-07-29T05:00:40;17.20;99.90
49224;DHT22;35050;51.316;5.994;2022-07-29T05:03:06;17.30;99.90
49224;DHT22;35050;51.316;5.994;2022-07-29T05:05:32;17.30;99.90
49224;DHT22;35050;51.316;5.994;2022-07-29T05:08:00;17.20;99.90
49224;DHT22;35050;51.316;5.994;2022-07-29T05:10:26;17.30;99.90
49224;DHT22;35050;51.316;5.994;2022-07-29T05:12:51;17.10;99.90
49224;DHT22;35050;51.316;5.994;2022-07-29T05:15:17;17.30;99.90
49224;DHT22;35050;51.316;5.994;2022-07-29T05:17:44;17.40;99.90
49224;DHT22;35050;51.316;5.994;2022-07-29T05:20:10;17.50;99.90
49224;DHT22;35050;51.316;5.994;2022-07-29T05:22:35;17.50;99.90
49224;DHT22;35050;51.316;5.994;2022-07-29T05:25:02;17.60;99.90
49224;DHT22;35050;51.316;5.994;2022-07-29T05:27:28;17.50;99.90
49224;DHT22;35050;51.316;5.994;2022-07-29T05:29:53;17.60;99.90
49224;DHT22;35050;51.316;5.994;2022-07-29T05:32:19;17.60;99.90
49224;DHT22;35050;51.316;5.994;2022-07-29T05:34:44;17.50;99.90
49224;DHT22;35050;51.316;5.994;2022-07-29T05:37:10;17.60;99.90
49224;DHT22;35050;51.316;5.994;2022-07-29T05:39:38;17.60;99.90
49224;DHT22;35050;51.316;5.994;2022-07-29T05:42:08;17.60;99.90
49224;DHT22;35050;51.316;5.994;2022-07-29T05:44:38;17.60;99.90
49224;DHT22;35050;51.316;5.994;2022-07-29T05:47:04;17.50;99.90
49224;DHT22;35050;51.316;5.994;2022-07-29T05:49:30;17.40;99.90
49224;DHT22;35050;51.316;5.994;2022-07-29T05:51:56;17.40;99.90
49224;DHT22;35050;51.316;5.994;2022-07-29T05:54:22;17.50;99.90
49224;DHT22;35050;51.316;5.994;2022-07-29T05:56:47;17.40;99.90
49224;DHT22;35050;51.316;5.994;2022-07-29T05:59:13;17.20;99.90
49224;DHT22;35050;51.316;5.994;2022-07-29T06:01:38;17.30;99.90
49224;DHT22;35050;51.316;5.994;2022-07-29T06:04:06;17.40;99.90
49224;DHT22;35050;51.316;5.994;2022-07-29T06:06:32;17.40;99.90
49224;DHT22;35050;51.316;5.994;2022-07-29T06:08:59;17.40;99.90
49224;DHT22;35050;51.316;5.994;2022-07-29T06:11:24;17.60;99.90
49224;DHT22;35050;51.316;5.994;2022-07-29T06:13:50;17.40;99.90
49224;DHT22;35050;51.316;5.994;2022-07-29T06:16:16;17.30;99.90
49224;DHT22;35050;51.316;5.994;2022-07-29T06:18:41;17.50;99.90
49224;DHT22;35050;51.316;5.994;2022-07-29T06:21:08;17.40;99.90
49224;DHT22;35050;51.316;5.994;2022-07-29T06:23:36;17.20;99.90
49224;DHT22;35050;51.316;5.994;2022-07-29T06:26:02;17.40;99.90
49224;DHT22;35050;51.316;5.994;2022-07-29T06:28:27;17.50;99.90
49224;DHT22;35050;51.316;5.994;2022-07-29T06:30:53;17.50;99.90
49224;DHT22;35050;51.316;5.994;2022-07-29T06:33:19;17.50;99.90
49224;DHT22;35050;51.316;5.994;2022-07-29T06:35:45;17.50;99.90
49224;DHT22;35050;51.316;5.994;2022-07-29T06:38:13;17.50;99.90
49224;DHT22;35050;51.316;5.994;2022-07-29T06:40:45;17.40;99.90
49224;DHT22;35050;51.316;5.994;2022-07-29T06:46:02;17.40;99.90
49224;DHT22;35050;51.316;5.994;2022-07-29T06:48:29;17.30;99.90
49224;DHT22;35050;51.316;5.994;2022-07-29T06:50:54;17.50;99.90
49224;DHT22;35050;51.316;5.994;2022-07-29T06:53:20;17.60;99.90
49224;DHT22;35050;51.316;5.994;2022-07-29T06:55:46;17.50;99.90
49224;DHT22;35050;51.316;5.994;2022-07-29T06:58:11;17.50;99.90
49224;DHT22;35050;51.316;5.994;2022-07-29T07:00:39;17.50;99.90
49224;DHT22;35050;51.316;5.994;2022-07-29T07:03:05;17.50;99.90
49224;DHT22;35050;51.316;5.994;2022-07-29T07:05:30;17.60;99.90
49224;DHT22;35050;51.316;5.994;2022-07-29T07:07:56;17.70;99.90
49224;DHT22;35050;51.316;5.994;2022-07-29T07:10:22;17.70;99.90
49224;DHT22;35050;51.316;5.994;2022-07-29T07:12:47;17.90;99.90
49224;DHT22;35050;51.316;5.994;2022-07-29T07:15:13;17.80;99.90
49224;DHT22;35050;51.316;5.994;2022-07-29T07:17:38;17.90;99.90
49224;DHT22;35050;51.316;5.994;2022-07-29T07:20:05;18.20;99.90
49224;DHT22;35050;51.316;5.994;2022-07-29T07:22:31;18.20;99.90
49224;DHT22;35050;51.316;5.994;2022-07-29T07:24:57;18.10;99.90
49224;DHT22;35050;51.316;5.994;2022-07-29T07:27:22;18.20;99.90
49224;DHT22;35050;51.316;5.994;2022-07-29T07:29:48;18.20;99.90
49224;DHT22;35050;51.316;5.994;2022-07-29T07:32:14;18.10;99.90
49224;DHT22;35050;51.316;5.994;2022-07-29T07:34:42;18.20;99.90
49224;DHT22;35050;51.316;5.994;2022-07-29T07:37:08;18.30;99.90
49224;DHT22;35050;51.316;5.994;2022-07-29T07:39:34;18.20;99.90
49224;DHT22;35050;51.316;5.994;2022-07-29T07:42:00;18.30;99.90
49224;DHT22;35050;51.316;5.994;2022-07-29T07:44:25;18.30;99.90
49224;DHT22;35050;51.316;5.994;2022-07-29T07:46:52;18.30;99.90
49224;DHT22;35050;51.316;5.994;2022-07-29T07:49:17;18.20;99.90
49224;DHT22;35050;51.316;5.994;2022-07-29T07:51:44;18.20;99.90
49224;DHT22;35050;51.316;5.994;2022-07-29T07:54:09;18.20;99.90
49224;DHT22;35050;51.316;5.994;2022-07-29T07:56:35;18.20;99.90
49224;DHT22;35050;51.316;5.994;2022-07-29T07:59:01;18.20;99.90
49224;DHT22;35050;51.316;5.994;2022-07-29T08:01:26;18.30;99.90
49224;DHT22;35050;51.316;5.994;2022-07-29T08:03:52;18.40;99.90
49224;DHT22;35050;51.316;5.994;2022-07-29T08:06:17;18.40;99.90
49224;DHT22;35050;51.316;5.994;2022-07-29T08:08:43;18.40;99.90
49224;DHT22;35050;51.316;5.994;2022-07-29T08:11:09;18.50;99.90
49224;DHT22;35050;51.316;5.994;2022-07-29T08:13:35;18.50;99.90
49224;DHT22;35050;51.316;5.994;2022-07-29T08:16:02;18.60;99.90
49224;DHT22;35050;51.316;5.994;2022-07-29T08:18:36;18.50;99.90
49224;DHT22;35050;51.316;5.994;2022-07-29T08:21:02;18.60;99.90
49224;DHT22;35050;51.316;5.994;2022-07-29T08:23:28;18.60;99.90
49224;DHT22;35050;51.316;5.994;2022-07-29T08:26:00;18.70;99.90
49224;DHT22;35050;51.316;5.994;2022-07-29T08:28:26;18.70;99.90
49224;DHT22;35050;51.316;5.994;2022-07-29T08:30:52;18.80;99.90
49224;DHT22;35050;51.316;5.994;2022-07-29T08:33:18;18.90;99.90
49224;DHT22;35050;51.316;5.994;2022-07-29T08:35:43;19.00;99.90
49224;DHT22;35050;51.316;5.994;2022-07-29T08:38:09;19.40;99.90
49224;DHT22;35050;51.316;5.994;2022-07-29T08:40:35;19.80;99.90
49224;DHT22;35050;51.316;5.994;2022-07-29T08:43:05;20.00;99.90
49224;DHT22;35050;51.316;5.994;2022-07-29T08:45:44;20.10;99.90
49224;DHT22;35050;51.316;5.994;2022-07-29T08:48:23;20.40;99.90
49224;DHT22;35050;51.316;5.994;2022-07-29T08:50:54;19.90;99.90
49224;DHT22;35050;51.316;5.994;2022-07-29T08:53:21;20.00;99.90
49224;DHT22;35050;51.316;5.994;2022-07-29T08:55:49;20.20;99.90
49224;DHT22;35050;51.316;5.994;2022-07-29T08:58:15;20.60;99.90
49224;DHT22;35050;51.316;5.994;2022-07-29T09:00:45;20.70;99.90
49224;DHT22;35050;51.316;5.994;2022-07-29T09:03:15;21.10;99.90
49224;DHT22;35050;51.316;5.994;2022-07-29T09:05:42;21.00;99.90
49224;DHT22;35050;51.316;5.994;2022-07-29T09:08:08;21.40;99.90
49224;DHT22;35050;51.316;5.994;2022-07-29T09:10:35;21.20;99.90
49224;DHT22;35050;51.316;5.994;2022-07-29T09:13:01;21.30;99.90
49224;DHT22;35050;51.316;5.994;2022-07-29T09:15:26;21.40;99.90
49224;DHT22;35050;51.316;5.994;2022-07-29T09:17:52;21.50;99.90
49224;DHT22;35050;51.316;5.994;2022-07-29T09:20:20;21.10;99.90
49224;DHT22;35050;51.316;5.994;2022-07-29T09:22:46;21.60;99.90
49224;DHT22;35050;51.316;5.994;2022-07-29T09:25:32;21.70;99.90
49224;DHT22;35050;51.316;5.994;2022-07-29T09:28:06;21.80;99.90
49224;DHT22;35050;51.316;5.994;2022-07-29T09:30:32;22.10;99.90
49224;DHT22;35050;51.316;5.994;2022-07-29T09:33:00;21.70;99.90
49224;DHT22;35050;51.316;5.994;2022-07-29T09:35:27;21.60;99.90
49224;DHT22;35050;51.316;5.994;2022-07-29T09:37:53;22.10;99.90
49224;DHT22;35050;51.316;5.994;2022-07-29T09:40:27;22.20;99.90
49224;DHT22;35050;51.316;5.994;2022-07-29T09:42:53;21.80;99.90
49224;DHT22;35050;51.316;5.994;2022-07-29T09:45:31;21.80;99.90
49224;DHT22;35050;51.316;5.994;2022-07-29T09:47:57;22.50;99.90
49224;DHT22;35050;51.316;5.994;2022-07-29T09:50:36;22.60;99.90
49224;DHT22;35050;51.316;5.994;2022-07-29T09:53:02;23.10;99.90
49224;DHT22;35050;51.316;5.994;2022-07-29T09:55:28;23.30;99.90
49224;DHT22;35050;51.316;5.994;2022-07-29T09:57:53;23.60;99.90
49224;DHT22;35050;51.316;5.994;2022-07-29T10:00:42;23.40;99.90
49224;DHT22;35050;51.316;5.994;2022-07-29T10:03:08;23.60;99.90
49224;DHT22;35050;51.316;5.994;2022-07-29T10:05:33;23.80;99.90
49224;DHT22;35050;51.316;5.994;2022-07-29T10:07:59;24.10;99.90
49224;DHT22;35050;51.316;5.994;2022-07-29T10:10:33;23.90;99.90
49224;DHT22;35050;51.316;5.994;2022-07-29T10:13:01;24.00;99.90
49224;DHT22;35050;51.316;5.994;2022-07-29T10:15:30;24.50;99.90
49224;DHT22;35050;51.316;5.994;2022-07-29T10:17:58;24.50;99.90
49224;DHT22;35050;51.316;5.994;2022-07-29T10:20:24;24.70;99.90
49224;DHT22;35050;51.316;5.994;2022-07-29T10:22:51;24.20;99.90
49224;DHT22;35050;51.316;5.994;2022-07-29T10:25:17;24.00;99.90
49224;DHT22;35050;51.316;5.994;2022-07-29T10:27:44;24.70;99.90
49224;DHT22;35050;51.316;5.994;2022-07-29T10:30:12;24.90;99.90
49224;DHT22;35050;51.316;5.994;2022-07-29T10:35:57;25.30;99.90
49224;DHT22;35050;51.316;5.994;2022-07-29T10:38:42;26.00;99.90
49224;DHT22;35050;51.316;5.994;2022-07-29T10:41:11;26.00;99.90
49224;DHT22;35050;51.316;5.994;2022-07-29T10:44:00;26.20;99.90
49224;DHT22;35050;51.316;5.994;2022-07-29T10:46:27;26.40;99.90
49224;DHT22;35050;51.316;5.994;2022-07-29T10:49:09;26.30;99.90
49224;DHT22;35050;51.316;5.994;2022-07-29T10:54:40;26.00;99.90
49224;DHT22;35050;51.316;5.994;2022-07-29T10:59:49;26.90;98.80
49224;DHT22;35050;51.316;5.994;2022-07-29T11:05:09;27.10;99.40
49224;DHT22;35050;51.316;5.994;2022-07-29T11:07:36;27.50;99.60
49224;DHT22;35050;51.316;5.994;2022-07-29T11:15:14;27.30;96.90
49224;DHT22;35050;51.316;5.994;2022-07-29T11:22:57;27.80;96.90
49224;DHT22;35050;51.316;5.994;2022-07-29T11:25:23;27.90;96.30
49224;DHT22;35050;51.316;5.994;2022-07-29T11:27:49;28.00;97.50
49224;DHT22;35050;51.316;5.994;2022-07-29T11:30:15;27.80;96.80
49224;DHT22;35050;51.316;5.994;2022-07-29T11:32:43;28.00;96.10
49224;DHT22;35050;51.316;5.994;2022-07-29T11:35:22;28.00;95.40
49224;DHT22;35050;51.316;5.994;2022-07-29T11:38:26;27.90;94.90
49224;DHT22;35050;51.316;5.994;2022-07-29T11:43:54;27.90;96.50
49224;DHT22;35050;51.316;5.994;2022-07-29T11:46:43;28.30;96.20
49224;DHT22;35050;51.316;5.994;2022-07-29T11:49:10;28.60;95.10
49224;DHT22;35050;51.316;5.994;2022-07-29T11:51:36;28.70;94.50
49224;DHT22;35050;51.316;5.994;2022-07-29T11:54:03;29.00;94.20
49224;DHT22;35050;51.316;5.994;2022-07-29T11:56:31;28.50;92.90
49224;DHT22;35050;51.316;5.994;2022-07-29T11:59:07;28.50;94.40
49224;DHT22;35050;51.316;5.994;2022-07-29T12:01:35;27.70;94.10
49224;DHT22;35050;51.316;5.994;2022-07-29T12:04:04;29.00;94.30
49224;DHT22;35050;51.316;5.994;2022-07-29T12:06:32;28.80;93.10
49224;DHT22;35050;51.316;5.994;2022-07-29T12:08:57;28.70;92.10
49224;DHT22;35050;51.316;5.994;2022-07-29T12:11:23;28.30;93.40
49224;DHT22;35050;51.316;5.994;2022-07-29T12:13:50;28.40;93.30
49224;DHT22;35050;51.316;5.994;2022-07-29T12:16:17;28.40;92.70
49224;DHT22;35050;51.316;5.994;2022-07-29T12:18:55;28.80;93.40
49224;DHT22;35050;51.316;5.994;2022-07-29T12:21:20;28.60;93.30
49224;DHT22;35050;51.316;5.994;2022-07-29T12:23:53;28.80;93.30
49224;DHT22;35050;51.316;5.994;2022-07-29T12:26:20;29.00;93.10
49224;DHT22;35050;51.316;5.994;2022-07-29T12:28:45;28.70;93.80
49224;DHT22;35050;51.316;5.994;2022-07-29T12:31:15;28.40;93.20
49224;DHT22;35050;51.316;5.994;2022-07-29T12:33:41;28.90;93.20
49224;DHT22;35050;51.316;5.994;2022-07-29T12:36:08;29.20;93.30
49224;DHT22;35050;51.316;5.994;2022-07-29T12:38:34;29.60;92.00
49224;DHT22;35050;51.316;5.994;2022-07-29T12:41:01;29.70;91.40
49224;DHT22;35050;51.316;5.994;2022-07-29T12:43:27;29.70;90.80
49224;DHT22;35050;51.316;5.994;2022-07-29T12:45:57;29.80;91.40
49224;DHT22;35050;51.316;5.994;2022-07-29T12:51:00;29.00;91.10
49224;DHT22;35050;51.316;5.994;2022-07-29T12:53:27;29.50;90.90
49224;DHT22;35050;51.316;5.994;2022-07-29T12:55:54;29.80;92.40
49224;DHT22;35050;51.316;5.994;2022-07-29T13:01:04;29.70;89.40
49224;DHT22;35050;51.316;5.994;2022-07-29T13:03:52;29.90;90.70
49224;DHT22;35050;51.316;5.994;2022-07-29T13:06:28;30.00;91.60
49224;DHT22;35050;51.316;5.994;2022-07-29T13:09:18;29.80;90.90
49224;DHT22;35050;51.316;5.994;2022-07-29T13:11:50;30.10;90.80
49224;DHT22;35050;51.316;5.994;2022-07-29T13:14:31;29.80;91.20
49224;DHT22;35050;51.316;5.994;2022-07-29T13:17:20;29.60;90.40
49224;DHT22;35050;51.316;5.994;2022-07-29T13:20:03;29.30;91.50
49224;DHT22;35050;51.316;5.994;2022-07-29T13:22:29;29.90;92.70
49224;DHT22;35050;51.316;5.994;2022-07-29T13:25:00;30.10;90.40
49224;DHT22;35050;51.316;5.994;2022-07-29T13:27:30;29.80;90.30
49224;DHT22;35050;51.316;5.994;2022-07-29T13:30:00;29.50;92.60
49224;DHT22;35050;51.316;5.994;2022-07-29T13:32:27;29.50;89.20
49224;DHT22;35050;51.316;5.994;2022-07-29T13:34:54;30.00;90.70
49224;DHT22;35050;51.316;5.994;2022-07-29T13:37:20;30.20;90.10
49224;DHT22;35050;51.316;5.994;2022-07-29T13:39:46;30.10;88.90
49224;DHT22;35050;51.316;5.994;2022-07-29T13:42:13;29.90;87.60
49224;DHT22;35050;51.316;5.994;2022-07-29T13:44:41;30.20;86.80
49224;DHT22;35050;51.316;5.994;2022-07-29T13:47:08;29.40;87.50
49224;DHT22;35050;51.316;5.994;2022-07-29T13:49:34;29.90;90.10
49224;DHT22;35050;51.316;5.994;2022-07-29T13:52:00;30.50;90.40
49224;DHT22;35050;51.316;5.994;2022-07-29T13:54:25;30.50;88.30
49224;DHT22;35050;51.316;5.994;2022-07-29T13:56:51;30.60;90.00
49224;DHT22;35050;51.316;5.994;2022-07-29T13:59:17;31.00;87.40
49224;DHT22;35050;51.316;5.994;2022-07-29T14:01:43;30.50;86.00
49224;DHT22;35050;51.316;5.994;2022-07-29T14:04:09;29.90;90.00
49224;DHT22;35050;51.316;5.994;2022-07-29T14:06:36;30.00;89.50
49224;DHT22;35050;51.316;5.994;2022-07-29T14:09:02;29.80;90.30
49224;DHT22;35050;51.316;5.994;2022-07-29T14:11:31;29.40;90.20
49224;DHT22;35050;51.316;5.994;2022-07-29T14:13:57;28.90;90.70
49224;DHT22;35050;51.316;5.994;2022-07-29T14:16:23;28.60;90.50
49224;DHT22;35050;51.316;5.994;2022-07-29T14:18:48;27.60;91.30
49224;DHT22;35050;51.316;5.994;2022-07-29T14:21:14;28.90;91.60
49224;DHT22;35050;51.316;5.994;2022-07-29T14:23:40;29.60;91.30
49224;DHT22;35050;51.316;5.994;2022-07-29T14:26:06;30.10;90.30
49224;DHT22;35050;51.316;5.994;2022-07-29T14:28:32;30.20;86.70
49224;DHT22;35050;51.316;5.994;2022-07-29T14:30:57;30.30;87.90
49224;DHT22;35050;51.316;5.994;2022-07-29T14:33:23;30.60;87.00
49224;DHT22;35050;51.316;5.994;2022-07-29T14:35:49;30.10;90.10
49224;DHT22;35050;51.316;5.994;2022-07-29T14:38:14;30.00;87.70
49224;DHT22;35050;51.316;5.994;2022-07-29T14:40:40;29.70;90.30
49224;DHT22;35050;51.316;5.994;2022-07-29T14:43:05;29.40;89.20
49224;DHT22;35050;51.316;5.994;2022-07-29T14:45:31;29.80;86.40
49224;DHT22;35050;51.316;5.994;2022-07-29T14:47:57;30.50;88.20
49224;DHT22;35050;51.316;5.994;2022-07-29T14:50:22;30.60;84.10
49224;DHT22;35050;51.316;5.994;2022-07-29T14:52:48;30.50;87.90
49224;DHT22;35050;51.316;5.994;2022-07-29T14:55:14;30.10;85.70
49224;DHT22;35050;51.316;5.994;2022-07-29T14:57:39;30.30;85.50
49224;DHT22;35050;51.316;5.994;2022-07-29T15:00:06;30.30;86.20
49224;DHT22;35050;51.316;5.994;2022-07-29T15:02:33;30.30;86.70
49224;DHT22;35050;51.316;5.994;2022-07-29T15:04:58;30.70;83.50
49224;DHT22;35050;51.316;5.994;2022-07-29T15:07:24;30.70;81.80
49224;DHT22;35050;51.316;5.994;2022-07-29T15:09:50;30.90;85.10
49224;DHT22;35050;51.316;5.994;2022-07-29T15:12:16;30.80;82.20
49224;DHT22;35050;51.316;5.994;2022-07-29T15:14:41;31.10;85.40
49224;DHT22;35050;51.316;5.994;2022-07-29T15:17:07;30.70;83.50
49224;DHT22;35050;51.316;5.994;2022-07-29T15:19:33;29.90;83.50
49224;DHT22;35050;51.316;5.994;2022-07-29T15:21:59;29.60;83.90
49224;DHT22;35050;51.316;5.994;2022-07-29T15:24:24;29.30;86.30
49224;DHT22;35050;51.316;5.994;2022-07-29T15:26:50;29.30;85.10
49224;DHT22;35050;51.316;5.994;2022-07-29T15:29:15;30.00;85.80
49224;DHT22;35050;51.316;5.994;2022-07-29T15:31:42;30.30;85.00
49224;DHT22;35050;51.316;5.994;2022-07-29T15:34:09;30.50;85.20
49224;DHT22;35050;51.316;5.994;2022-07-29T15:36:35;29.90;85.00
49224;DHT22;35050;51.316;5.994;2022-07-29T15:39:01;29.90;84.10
49224;DHT22;35050;51.316;5.994;2022-07-29T15:41:26;30.70;85.00
49224;DHT22;35050;51.316;5.994;2022-07-29T15:43:52;30.30;82.20
49224;DHT22;35050;51.316;5.994;2022-07-29T15:46:19;30.40;84.60
49224;DHT22;35050;51.316;5.994;2022-07-29T15:49:05;30.40;83.70
49224;DHT22;35050;51.316;5.994;2022-07-29T15:51:31;30.30;83.10
49224;DHT22;35050;51.316;5.994;2022-07-29T15:53:57;29.80;82.90
49224;DHT22;35050;51.316;5.994;2022-07-29T15:56:23;30.00;83.70
49224;DHT22;35050;51.316;5.994;2022-07-29T15:58:49;29.30;84.40
49224;DHT22;35050;51.316;5.994;2022-07-29T16:01:14;29.00;84.50
49224;DHT22;35050;51.316;5.994;2022-07-29T16:03:40;29.00;85.60
49224;DHT22;35050;51.316;5.994;2022-07-29T16:06:06;29.00;86.60
49224;DHT22;35050;51.316;5.994;2022-07-29T16:08:31;29.00;85.90
49224;DHT22;35050;51.316;5.994;2022-07-29T16:10:57;29.00;86.70
49224;DHT22;35050;51.316;5.994;2022-07-29T16:13:23;28.70;84.80